createdAt,value
2023-01-30T00:01:57.256Z,63.72
2023-01-30T00:04:26.639Z,63.98
2023-01-30T00:06:55.711Z,63.86
2023-01-30T00:09:23.383Z,63.74
2023-01-30T00:11:51.126Z,64.13
2023-01-30T00:14:18.925Z,64.22
2023-01-30T00:16:46.653Z,64.61
2023-01-30T00:19:14.381Z,64.73
2023-01-30T00:21:42.078Z,64.79
2023-01-30T00:24:11.426Z,65.22
2023-01-30T00:26:39.167Z,65.57
2023-01-30T00:29:06.851Z,65.59
2023-01-30T00:31:34.522Z,65.90
2023-01-30T00:34:02.236Z,66.22
2023-01-30T00:36:30.003Z,66.55
2023-01-30T00:38:58.559Z,66.72
2023-01-30T00:41:50.487Z,67.16
2023-01-30T00:44:35.794Z,67.42
2023-01-30T00:47:09.175Z,66.81
2023-01-30T00:49:37.236Z,66.67
2023-01-30T00:52:05.696Z,66.84
2023-01-30T00:54:33.599Z,66.49
2023-01-30T00:57:02.702Z,66.85
2023-01-30T00:59:30.387Z,67.29
2023-01-30T01:01:58.148Z,67.03
2023-01-30T01:04:25.983Z,67.88
2023-01-30T01:06:53.646Z,67.79
2023-01-30T01:09:21.399Z,68.37
2023-01-30T01:11:49.142Z,68.53
2023-01-30T01:14:18.234Z,67.79
2023-01-30T01:16:46.159Z,67.38
2023-01-30T01:19:13.826Z,67.16
2023-01-30T01:21:41.494Z,67.73
2023-01-30T01:24:13.820Z,68.14
2023-01-30T01:26:41.767Z,68.78
2023-01-30T01:29:13.354Z,68.79
2023-01-30T01:31:42.615Z,68.74
2023-01-30T01:34:10.489Z,68.40
2023-01-30T01:36:54.806Z,68.03
2023-01-30T01:39:23.419Z,67.56
2023-01-30T01:41:50.171Z,66.86
2023-01-30T01:44:18.001Z,66.41
2023-01-30T01:46:52.004Z,66.22
2023-01-30T01:49:23.870Z,66.63
2023-01-30T01:51:57.224Z,67.23
2023-01-30T01:54:30.601Z,67.45
2023-01-30T01:56:58.382Z,67.44
2023-01-30T01:59:31.248Z,66.96
2023-01-30T02:02:04.967Z,66.75
2023-01-30T02:04:48.038Z,67.03
2023-01-30T02:07:19.072Z,67.43
2023-01-30T02:09:46.885Z,66.85
2023-01-30T02:12:16.404Z,66.88
2023-01-30T02:14:45.245Z,67.51
2023-01-30T02:17:14.252Z,67.52
2023-01-30T02:19:50.759Z,67.53
2023-01-30T02:22:45.821Z,67.40
2023-01-30T02:25:27.497Z,67.31
2023-01-30T02:28:33.231Z,67.54
2023-01-30T02:31:18.410Z,67.74
2023-01-30T02:33:57.217Z,67.66
2023-01-30T02:36:31.622Z,67.31
2023-01-30T02:39:08.240Z,67.56
2023-01-30T02:41:45.337Z,67.42
2023-01-30T02:44:19.148Z,66.72
2023-01-30T02:46:55.464Z,66.39
2023-01-30T02:49:30.113Z,66.64
2023-01-30T02:52:00.355Z,67.33
2023-01-30T02:54:28.371Z,67.67
2023-01-30T02:56:59.770Z,67.90
2023-01-30T02:59:32.531Z,67.45
2023-01-30T03:02:33.850Z,67.56
2023-01-30T03:05:21.042Z,67.39
2023-01-30T03:07:56.576Z,67.52
2023-01-30T03:10:33.977Z,67.76
2023-01-30T03:13:06.501Z,68.40
2023-01-30T03:15:36.603Z,68.47
2023-01-30T03:18:06.114Z,68.55
2023-01-30T03:20:38.471Z,68.74
2023-01-30T03:23:06.206Z,68.50
2023-01-30T03:25:36.949Z,68.79
2023-01-30T03:28:07.831Z,68.72
2023-01-30T03:30:35.571Z,68.89
2023-01-30T03:33:03.262Z,69.55
2023-01-30T03:35:32.410Z,69.54
2023-01-30T03:38:00.301Z,70.36
2023-01-30T03:40:28.151Z,70.92
2023-01-30T03:42:55.859Z,70.06
2023-01-30T03:45:23.530Z,69.90
2023-01-30T03:47:51.928Z,69.37
2023-01-30T03:50:19.663Z,69.41
2023-01-30T03:52:48.729Z,69.09
2023-01-30T03:55:17.050Z,69.06
2023-01-30T03:57:45.008Z,68.85
2023-01-30T04:00:13.471Z,68.44
2023-01-30T04:02:41.230Z,68.84
2023-01-30T04:05:09.105Z,68.86
2023-01-30T04:07:36.803Z,68.98
2023-01-30T04:10:06.761Z,68.55
2023-01-30T04:12:34.455Z,68.97
2023-01-30T04:15:02.180Z,69.33
2023-01-30T04:17:29.847Z,69.78
2023-01-30T04:19:57.527Z,69.74
2023-01-30T04:22:25.205Z,69.91
2023-01-30T04:24:52.865Z,69.71
2023-01-30T04:27:21.914Z,69.58
2023-01-30T04:29:49.612Z,69.61
2023-01-30T04:32:17.303Z,69.28
2023-01-30T04:34:45.229Z,69.56
2023-01-30T04:37:14.761Z,69.39
2023-01-30T04:39:42.424Z,69.55
2023-01-30T04:42:10.103Z,70.27
2023-01-30T04:44:39.193Z,69.92
2023-01-30T04:47:06.927Z,69.72
2023-01-30T04:49:34.627Z,69.52
2023-01-30T04:52:02.295Z,69.87
2023-01-30T04:54:31.767Z,70.41
2023-01-30T04:56:59.546Z,69.91
2023-01-30T04:59:27.243Z,69.79
2023-01-30T05:01:56.839Z,69.63
2023-01-30T05:04:24.799Z,69.97
2023-01-30T05:06:52.474Z,69.85
2023-01-30T05:09:20.193Z,69.35
2023-01-30T05:11:49.828Z,69.42
2023-01-30T05:14:17.590Z,69.67
2023-01-30T05:16:45.190Z,69.41
2023-01-30T05:19:14.415Z,69.51
2023-01-30T05:21:42.082Z,69.61
2023-01-30T05:24:09.859Z,69.64
2023-01-30T05:26:37.774Z,69.76
2023-01-30T05:29:05.511Z,69.24
2023-01-30T05:31:35.221Z,69.25
2023-01-30T05:34:02.934Z,69.13
2023-01-30T05:36:31.956Z,68.88
2023-01-30T05:38:59.580Z,69.29
2023-01-30T05:41:27.309Z,69.09
2023-01-30T05:43:55.002Z,69.29
2023-01-30T05:46:22.708Z,69.81
2023-01-30T05:48:50.425Z,69.63
2023-01-30T05:51:20.271Z,69.70
2023-01-30T05:53:49.545Z,69.57
2023-01-30T05:56:17.701Z,69.39
2023-01-30T05:58:50.691Z,69.25
2023-01-30T06:01:18.386Z,69.27
2023-01-30T06:03:46.189Z,69.04
2023-01-30T06:06:14.200Z,69.13
2023-01-30T06:08:42.456Z,68.96
2023-01-30T06:11:13.861Z,69.45
2023-01-30T06:13:41.681Z,69.35
2023-01-30T06:16:12.030Z,69.11
2023-01-30T06:18:40.283Z,69.71
2023-01-30T06:21:08.776Z,69.67
2023-01-30T06:23:36.569Z,69.95
2023-01-30T06:26:06.262Z,69.72
2023-01-30T06:28:37.501Z,70.42
2023-01-30T06:31:07.913Z,70.53
2023-01-30T06:33:35.732Z,70.20
2023-01-30T06:36:03.577Z,70.15
2023-01-30T06:38:31.342Z,70.18
2023-01-30T06:40:59.013Z,70.02
2023-01-30T06:43:26.683Z,70.44
2023-01-30T06:45:55.714Z,71.19
2023-01-30T06:48:23.412Z,71.61
2023-01-30T06:50:51.130Z,72.04
2023-01-30T06:53:18.933Z,71.90
2023-01-30T06:55:47.776Z,71.66
2023-01-30T06:58:16.060Z,71.33
2023-01-30T07:00:44.303Z,71.33
2023-01-30T07:03:14.597Z,71.57
2023-01-30T07:05:43.293Z,70.87
2023-01-30T07:08:11.768Z,70.94
2023-01-30T07:10:39.923Z,71.19
2023-01-30T07:13:10.888Z,71.37
2023-01-30T07:15:38.815Z,71.47
2023-01-30T07:18:06.598Z,71.06
2023-01-30T07:20:35.870Z,70.92
2023-01-30T07:23:03.569Z,70.66
2023-01-30T07:25:31.366Z,70.28
2023-01-30T07:28:00.954Z,70.52
2023-01-30T07:30:33.103Z,70.48
2023-01-30T07:33:03.658Z,70.47
2023-01-30T07:35:33.134Z,70.41
2023-01-30T07:38:02.153Z,70.52
2023-01-30T07:40:29.862Z,70.98
2023-01-30T07:42:59.002Z,71.41
2023-01-30T07:45:26.861Z,70.85
2023-01-30T07:47:55.137Z,71.07
2023-01-30T07:50:22.871Z,71.21
2023-01-30T07:52:50.560Z,71.83
2023-01-30T07:55:19.999Z,71.69
2023-01-30T07:57:47.991Z,71.36
2023-01-30T08:00:16.993Z,71.17
2023-01-30T08:02:44.961Z,71.06
2023-01-30T08:05:12.672Z,71.06
2023-01-30T08:07:40.695Z,70.70
2023-01-30T08:10:11.876Z,70.62
2023-01-30T08:12:42.271Z,70.25
2023-01-30T08:15:11.273Z,70.21
2023-01-30T08:17:39.006Z,70.16
2023-01-30T08:20:07.859Z,70.19
2023-01-30T08:22:35.584Z,70.16
2023-01-30T08:25:03.343Z,70.07
2023-01-30T08:27:31.028Z,70.23
2023-01-30T08:30:00.193Z,70.29
2023-01-30T08:32:27.948Z,70.37
2023-01-30T08:34:55.657Z,70.10
2023-01-30T08:37:23.414Z,69.64
2023-01-30T08:39:51.153Z,69.69
2023-01-30T08:42:18.867Z,69.67
2023-01-30T08:44:46.705Z,69.25
2023-01-30T08:47:15.780Z,69.00
2023-01-30T08:49:43.445Z,69.02
2023-01-30T08:52:11.431Z,68.78
2023-01-30T08:54:39.095Z,68.76
2023-01-30T08:57:06.757Z,68.41
2023-01-30T08:59:34.663Z,68.38
2023-01-30T09:02:02.424Z,68.68
2023-01-30T09:04:32.172Z,68.53
2023-01-30T09:07:00.003Z,68.24
2023-01-30T09:09:29.605Z,68.89
2023-01-30T09:11:57.357Z,68.57
2023-01-30T09:14:25.067Z,68.64
2023-01-30T09:16:55.597Z,68.49
2023-01-30T09:19:23.825Z,68.97
2023-01-30T09:21:53.799Z,68.72
2023-01-30T09:24:26.241Z,68.64
2023-01-30T09:26:54.296Z,68.35
2023-01-30T09:29:22.663Z,67.90
2023-01-30T09:31:50.867Z,67.88
2023-01-30T09:34:18.613Z,67.75
2023-01-30T09:36:47.060Z,67.77
2023-01-30T09:39:16.838Z,67.85
2023-01-30T09:42:03.397Z,68.06
2023-01-30T09:45:05.080Z,67.73
2023-01-30T09:47:55.450Z,67.94
2023-01-30T09:50:45.638Z,68.57
2023-01-30T09:53:25.210Z,68.33
2023-01-30T09:55:59.011Z,68.56
2023-01-30T09:58:34.238Z,68.46
2023-01-30T10:01:12.976Z,68.75
2023-01-30T10:03:56.383Z,69.25
2023-01-30T10:06:24.140Z,68.98
2023-01-30T10:08:58.112Z,68.70
2023-01-30T10:11:41.406Z,68.19
2023-01-30T10:14:21.636Z,68.22
2023-01-30T10:17:01.312Z,67.88
2023-01-30T10:19:55.559Z,67.60
2023-01-30T10:22:38.662Z,66.97
2023-01-30T10:25:18.783Z,66.52
2023-01-30T10:27:53.544Z,63.67
2023-01-30T10:30:22.188Z,61.29
2023-01-30T10:32:55.243Z,60.41
2023-01-30T10:35:27.070Z,61.02
2023-01-30T10:38:01.993Z,61.21
2023-01-30T10:40:35.827Z,61.86
2023-01-30T10:43:16.016Z,62.59
2023-01-30T10:45:51.721Z,63.40
2023-01-30T10:48:46.337Z,63.11
2023-01-30T10:51:22.644Z,63.24
2023-01-30T10:53:57.515Z,63.64
2023-01-30T10:56:36.752Z,63.98
2023-01-30T10:59:22.694Z,65.45
2023-01-30T11:01:59.631Z,66.25
2023-01-30T11:04:32.705Z,66.75
2023-01-30T11:07:01.815Z,67.17
2023-01-30T11:09:43.853Z,67.56
2023-01-30T11:12:11.664Z,67.95
2023-01-30T11:14:55.289Z,68.38
2023-01-30T11:17:31.204Z,68.57
2023-01-30T11:20:06.967Z,68.78
2023-01-30T11:22:37.585Z,68.58
2023-01-30T11:25:08.021Z,68.41
2023-01-30T11:27:36.277Z,68.56
2023-01-30T11:30:09.012Z,67.74
2023-01-30T11:32:37.215Z,67.66
2023-01-30T11:35:27.208Z,67.49
2023-01-30T11:37:55.042Z,67.36
2023-01-30T11:40:29.647Z,65.19
2023-01-30T11:43:04.313Z,61.68
2023-01-30T11:45:39.014Z,55.14
2023-01-30T11:48:31.623Z,53.85
2023-01-30T11:51:04.968Z,56.52
2023-01-30T11:53:37.871Z,58.61
2023-01-30T11:56:11.111Z,60.55
2023-01-30T11:58:41.870Z,61.38
2023-01-30T12:01:12.782Z,62.18
2023-01-30T12:03:48.262Z,62.86
2023-01-30T12:06:23.507Z,63.05
2023-01-30T12:08:54.806Z,62.61
2023-01-30T12:11:29.868Z,61.81
2023-01-30T12:14:17.691Z,61.33
2023-01-30T12:16:55.154Z,61.30
2023-01-30T12:19:43.037Z,61.56
2023-01-30T12:22:20.378Z,62.83
2023-01-30T12:24:59.114Z,62.72
2023-01-30T12:27:38.435Z,61.46
2023-01-30T12:30:17.205Z,60.33
2023-01-30T12:32:46.798Z,59.38
2023-01-30T12:35:17.711Z,59.40
2023-01-30T12:37:57.965Z,58.62
2023-01-30T12:40:40.553Z,57.75
2023-01-30T12:43:33.928Z,59.15
2023-01-30T12:46:13.007Z,60.84
2023-01-30T12:49:13.728Z,62.11
2023-01-30T12:51:56.359Z,60.42
2023-01-30T12:54:41.364Z,60.15
2023-01-30T12:57:19.603Z,60.13
2023-01-30T12:59:58.787Z,60.60
2023-01-30T13:02:53.131Z,62.21
2023-01-30T13:05:38.548Z,63.12
2023-01-30T13:08:23.948Z,64.16
2023-01-30T13:10:55.747Z,64.78
2023-01-30T13:13:35.691Z,65.18
2023-01-30T13:16:11.694Z,65.77
2023-01-30T13:18:48.138Z,66.93
2023-01-30T13:21:22.182Z,67.65
2023-01-30T13:24:04.631Z,68.08
2023-01-30T13:26:35.896Z,68.26
2023-01-30T13:29:07.669Z,68.50
2023-01-30T13:31:40.206Z,68.84
2023-01-30T13:34:13.064Z,69.02
2023-01-30T13:36:48.392Z,68.88
2023-01-30T13:39:24.901Z,69.07
2023-01-30T13:41:56.621Z,69.10
2023-01-30T13:44:29.105Z,68.32
2023-01-30T13:46:59.564Z,67.48
2023-01-30T13:49:38.852Z,66.67
2023-01-30T13:52:18.041Z,66.77
2023-01-30T13:54:56.556Z,67.14
2023-01-30T13:57:33.541Z,67.21
2023-01-30T14:00:28.129Z,67.29
2023-01-30T14:03:31.699Z,67.66
2023-01-30T14:06:14.578Z,68.05
2023-01-30T14:08:54.983Z,68.07
2023-01-30T14:11:47.841Z,68.36
2023-01-30T14:14:31.500Z,67.90
2023-01-30T14:17:10.139Z,68.41
2023-01-30T14:19:41.693Z,68.45
2023-01-30T14:22:25.844Z,68.26
2023-01-30T14:25:36.999Z,68.69
2023-01-30T14:28:51.090Z,69.40
2023-01-30T14:31:51.938Z,70.07
2023-01-30T14:34:51.052Z,70.35
2023-01-30T14:37:57.404Z,70.33
2023-01-30T14:40:32.593Z,70.42
2023-01-30T14:43:48.524Z,70.40
2023-01-30T14:46:54.290Z,70.04
2023-01-30T14:49:30.525Z,69.95
2023-01-30T14:51:58.563Z,69.78
2023-01-30T14:54:41.851Z,69.96
2023-01-30T14:57:20.274Z,70.00
2023-01-30T15:00:13.103Z,70.14
2023-01-30T15:02:44.824Z,70.37
2023-01-30T15:05:16.276Z,70.23
2023-01-30T15:07:48.224Z,70.02
2023-01-30T15:10:39.721Z,70.00
2023-01-30T15:13:32.001Z,70.23
2023-01-30T15:16:10.967Z,70.85
2023-01-30T15:19:02.655Z,70.70
2023-01-30T15:21:46.616Z,70.44
2023-01-30T15:24:41.581Z,71.07
2023-01-30T15:27:18.082Z,71.43
2023-01-30T15:30:18.071Z,71.62
2023-01-30T15:32:46.217Z,71.63
2023-01-30T15:35:25.681Z,72.33
2023-01-30T15:37:56.227Z,72.83
2023-01-30T15:40:26.417Z,73.54
2023-01-30T15:43:05.186Z,74.19
2023-01-30T15:45:41.192Z,74.72
2023-01-30T15:48:27.557Z,74.74
2023-01-30T15:51:00.210Z,74.97
2023-01-30T15:53:31.392Z,75.08
2023-01-30T15:56:01.444Z,74.65
2023-01-30T15:58:30.525Z,75.19
2023-01-30T16:01:02.008Z,74.63
2023-01-30T16:03:34.250Z,74.44
2023-01-30T16:06:04.482Z,74.54
2023-01-30T16:08:34.332Z,74.60
2023-01-30T16:11:02.540Z,74.41
2023-01-30T16:13:33.212Z,74.36
2023-01-30T16:16:08.120Z,74.65
2023-01-30T16:18:41.863Z,74.08
2023-01-30T16:21:18.194Z,74.15
2023-01-30T16:23:56.926Z,74.21
2023-01-30T16:26:24.987Z,74.52
2023-01-30T16:29:01.181Z,74.80
2023-01-30T16:31:33.233Z,74.93
2023-01-30T16:34:01.596Z,75.09
2023-01-30T16:36:40.239Z,75.06
2023-01-30T16:39:32.536Z,75.13
2023-01-30T16:42:02.016Z,75.29
2023-01-30T16:44:30.890Z,75.36
2023-01-30T16:47:01.974Z,75.31
2023-01-30T16:49:45.385Z,75.21
2023-01-30T16:52:20.068Z,75.51
2023-01-30T16:54:50.626Z,75.61
2023-01-30T16:57:28.647Z,75.60
2023-01-30T16:59:56.699Z,75.76
2023-01-30T17:02:29.832Z,75.53
2023-01-30T17:05:11.288Z,75.37
2023-01-30T17:07:40.358Z,75.22
2023-01-30T17:10:51.318Z,75.13
2023-01-30T17:13:34.074Z,75.11
2023-01-30T17:16:23.543Z,74.88
2023-01-30T17:18:52.457Z,74.93
2023-01-30T17:21:21.049Z,75.35
2023-01-30T17:23:53.334Z,75.12
2023-01-30T17:26:21.169Z,75.18
2023-01-30T17:28:48.949Z,75.21
2023-01-30T17:31:18.760Z,75.09
2023-01-30T17:33:46.698Z,75.33
2023-01-30T17:36:23.019Z,75.11
2023-01-30T17:38:53.343Z,75.44
2023-01-30T17:41:22.517Z,75.52
2023-01-30T17:43:50.996Z,75.48
2023-01-30T17:46:19.211Z,75.21
2023-01-30T17:48:47.126Z,75.59
2023-01-30T17:51:14.949Z,76.09
2023-01-30T17:53:42.779Z,75.94
2023-01-30T17:56:18.772Z,76.13
2023-01-30T17:58:46.480Z,75.87
2023-01-30T18:01:16.233Z,75.71
2023-01-30T18:03:45.009Z,75.41
2023-01-30T18:06:15.074Z,75.31
2023-01-30T18:08:43.409Z,74.79
2023-01-30T18:11:12.104Z,74.71
2023-01-30T18:13:42.519Z,74.49
2023-01-30T18:16:16.091Z,74.31
2023-01-30T18:18:43.881Z,74.40
2023-01-30T18:21:11.664Z,74.38
2023-01-30T18:23:39.510Z,74.39
2023-01-30T18:26:07.306Z,74.26
2023-01-30T18:28:34.971Z,73.90
2023-01-30T18:31:04.265Z,73.82
2023-01-30T18:33:33.336Z,73.60
2023-01-30T18:36:04.144Z,73.25
2023-01-30T18:38:31.979Z,73.14
2023-01-30T18:40:59.669Z,72.96
2023-01-30T18:43:27.391Z,72.46
2023-01-30T18:46:04.753Z,72.96
2023-01-30T18:48:32.679Z,72.82
2023-01-30T18:51:08.360Z,72.68
2023-01-30T18:53:36.672Z,73.32
2023-01-30T18:56:05.531Z,73.79
2023-01-30T18:58:33.520Z,74.20
2023-01-30T19:01:01.794Z,74.25
2023-01-30T19:03:31.178Z,74.06
2023-01-30T19:06:02.047Z,74.44
2023-01-30T19:08:29.869Z,74.30
2023-01-30T19:11:24.057Z,73.71
2023-01-30T19:13:50.779Z,73.70
2023-01-30T19:16:19.142Z,73.71
2023-01-30T19:18:49.586Z,74.11
2023-01-30T19:21:17.606Z,74.26
2023-01-30T19:23:45.653Z,73.67
2023-01-30T19:26:13.691Z,73.54
2023-01-30T19:28:44.480Z,73.10
2023-01-30T19:31:14.922Z,72.63
2023-01-30T19:33:43.211Z,71.93
2023-01-30T19:36:15.201Z,72.22
2023-01-30T19:38:44.079Z,71.83
2023-01-30T19:41:12.461Z,71.77
2023-01-30T19:43:40.648Z,72.23
2023-01-30T19:46:10.891Z,72.36
2023-01-30T19:48:39.142Z,72.84
2023-01-30T19:51:13.990Z,72.83
2023-01-30T19:53:42.560Z,72.46
2023-01-30T19:56:12.042Z,71.86
2023-01-30T19:58:41.584Z,71.65
2023-01-30T20:01:10.949Z,71.24
2023-01-30T20:03:39.358Z,71.75
2023-01-30T20:06:08.836Z,72.35
2023-01-30T20:08:38.452Z,72.02
2023-01-30T20:11:07.374Z,71.63
2023-01-30T20:13:36.154Z,71.66
2023-01-30T20:16:06.505Z,71.60
2023-01-30T20:18:37.377Z,71.29
2023-01-30T20:21:07.164Z,70.87
2023-01-30T20:23:35.223Z,70.88
2023-01-30T20:26:06.406Z,70.77
2023-01-30T20:28:34.832Z,70.23
2023-01-30T20:31:08.941Z,69.92
2023-01-30T20:33:37.027Z,69.96
2023-01-30T20:36:07.134Z,69.86
2023-01-30T20:38:37.127Z,70.61
2023-01-30T20:41:09.290Z,70.71
2023-01-30T20:43:38.468Z,70.40
2023-01-30T20:46:08.087Z,70.38
2023-01-30T20:48:37.272Z,70.34
2023-01-30T20:51:06.613Z,70.43
2023-01-30T20:53:34.729Z,71.01
2023-01-30T20:56:02.715Z,71.05
2023-01-30T20:58:32.239Z,71.13
2023-01-30T21:01:08.405Z,70.83
2023-01-30T21:03:36.327Z,70.88
2023-01-30T21:06:04.413Z,71.62
2023-01-30T21:08:32.387Z,71.72
2023-01-30T21:11:08.423Z,71.57
2023-01-30T21:13:38.417Z,71.22
2023-01-30T21:16:08.831Z,70.95
2023-01-30T21:18:39.949Z,70.89
2023-01-30T21:21:08.380Z,70.67
2023-01-30T21:23:37.000Z,70.25
2023-01-30T21:26:09.321Z,70.30
2023-01-30T21:28:39.170Z,70.52
2023-01-30T21:31:08.792Z,70.84
2023-01-30T21:33:36.751Z,71.10
2023-01-30T21:36:05.280Z,71.43
2023-01-30T21:38:50.336Z,71.10
2023-01-30T21:41:37.847Z,70.98
2023-01-30T21:44:07.536Z,70.84
2023-01-30T21:46:39.014Z,70.61
2023-01-30T21:49:07.401Z,70.52
2023-01-30T21:51:36.621Z,70.32
2023-01-30T21:54:05.110Z,70.18
2023-01-30T21:56:33.383Z,70.33
2023-01-30T21:59:03.028Z,70.19
2023-01-30T22:01:33.173Z,69.83
2023-01-30T22:04:01.339Z,69.73
2023-01-30T22:06:29.250Z,69.75
2023-01-30T22:08:58.209Z,69.75
2023-01-30T22:11:26.602Z,69.51
2023-01-30T22:13:54.912Z,69.71
2023-01-30T22:16:24.870Z,69.87
2023-01-30T22:18:55.311Z,69.73
2023-01-30T22:21:24.553Z,70.03
2023-01-30T22:23:54.002Z,70.03
2023-01-30T22:26:24.067Z,70.03
2023-01-30T22:28:54.473Z,70.18
2023-01-30T22:31:22.908Z,70.45
2023-01-30T22:33:54.093Z,70.67
2023-01-30T22:36:24.678Z,70.82
2023-01-30T22:38:52.613Z,70.94
2023-01-30T22:41:22.125Z,70.85
2023-01-30T22:43:55.255Z,70.70
2023-01-30T22:46:25.009Z,70.82
2023-01-30T22:48:54.731Z,71.00
2023-01-30T22:51:23.732Z,70.71
2023-01-30T22:53:53.107Z,70.99
2023-01-30T22:56:23.080Z,70.70
2023-01-30T22:58:51.091Z,71.02
2023-01-30T23:01:20.496Z,71.00
2023-01-30T23:03:49.685Z,71.15
2023-01-30T23:06:19.046Z,71.17
2023-01-30T23:08:48.685Z,71.33
2023-01-30T23:11:18.908Z,71.68
2023-01-30T23:13:48.619Z,71.61
2023-01-30T23:16:17.561Z,71.68
2023-01-30T23:18:56.696Z,71.58
2023-01-30T23:21:28.003Z,71.96
2023-01-30T23:23:57.717Z,72.42
2023-01-30T23:26:27.509Z,72.40
2023-01-30T23:28:55.233Z,72.69
2023-01-30T23:31:30.918Z,72.67
2023-01-30T23:34:00.773Z,72.49
2023-01-30T23:36:30.775Z,72.32
2023-01-30T23:38:59.817Z,72.40
2023-01-30T23:41:29.621Z,72.18
2023-01-30T23:43:58.253Z,72.57
2023-01-30T23:46:27.994Z,72.74
2023-01-30T23:48:57.130Z,72.72
2023-01-30T23:51:27.095Z,72.48
2023-01-30T23:53:56.688Z,72.07
2023-01-30T23:56:26.689Z,72.09
2023-01-30T23:58:54.535Z,71.82
